Time;durP1;ratioP1;P1;durP2;ratioP2;P2;SDS_P1;SDS_P2;PMS_P1;PMS_P2;Temp;Humidity;BMP_temperature;BMP_pressure;BME280_temperature;BME280_humidity;BME280_pressure;Samples;Min_cycle;Max_cycle;Signal;HPM_P1;HPM_P2
2022/02/25 00:00:11;;;;;;;0.85;0.40;;;;;;;3.92;85.58;96374.13;4799110;29;20051;-81
2022/02/25 00:02:39;;;;;;;2.05;0.32;;;;;;;3.76;83.79;96362.59;4800101;29;20062;-80
2022/02/25 00:05:07;;;;;;;0.65;0.25;;;;;;;3.72;86.17;96364.22;4810304;29;20062;-80
2022/02/25 00:07:33;;;;;;;1.75;0.35;;;;;;;3.65;84.83;96356.41;4818160;29;20058;-80
2022/02/25 00:10:00;;;;;;;1.50;0.50;;;;;;;3.59;86.94;96364.75;4818185;29;20066;-79
2022/02/25 00:12:27;;;;;;;0.50;0.20;;;;;;;3.47;84.16;96369.66;4816891;29;20058;-80
2022/02/25 00:14:54;;;;;;;0.93;0.32;;;;;;;3.49;86.12;96379.03;4816909;29;20085;-79
2022/02/25 00:17:21;;;;;;;1.25;0.30;;;;;;;3.47;86.62;96388.50;4816764;29;20533;-82
2022/02/25 00:19:49;;;;;;;1.35;0.35;;;;;;;3.45;87.60;96396.84;4818733;29;20054;-79
2022/02/25 00:22:15;;;;;;;0.35;0.28;;;;;;;3.44;87.57;96403.28;4817098;29;20061;-79
2022/02/25 00:24:42;;;;;;;1.65;0.47;;;;;;;3.37;84.59;96419.72;4818062;29;20054;-80
2022/02/25 00:27:08;;;;;;;1.77;0.50;;;;;;;3.37;84.21;96433.19;4817408;29;20050;-80
2022/02/25 00:29:35;;;;;;;0.40;0.25;;;;;;;3.34;85.13;96441.81;4818140;29;20058;-81
2022/02/25 00:32:02;;;;;;;1.05;0.40;;;;;;;3.30;86.21;96427.28;4817382;29;20058;-80
2022/02/25 00:34:28;;;;;;;2.15;0.35;;;;;;;3.22;86.97;96448.53;4817935;29;20048;-80
2022/02/25 00:36:56;;;;;;;3.40;0.47;;;;;;;3.08;86.26;96453.59;4817851;29;20395;-80
2022/02/25 00:39:22;;;;;;;0.95;0.30;;;;;;;2.98;85.13;96459.00;4817284;29;20522;-80
2022/02/25 00:41:49;;;;;;;0.85;0.20;;;;;;;3.03;87.13;96465.19;4817984;29;20054;-79
2022/02/25 00:44:15;;;;;;;2.60;0.30;;;;;;;2.87;87.24;96480.50;4816862;29;20054;-81
2022/02/25 00:46:42;;;;;;;1.05;0.40;;;;;;;2.91;89.71;96482.66;4817999;29;20418;-80
2022/02/25 00:49:08;;;;;;;2.67;0.40;;;;;;;2.79;90.52;96481.00;4816853;29;20050;-80
2022/02/25 00:51:35;;;;;;;1.75;0.40;;;;;;;2.66;89.75;96478.81;4817378;29;20051;-80
2022/02/25 00:54:03;;;;;;;1.30;0.40;;;;;;;2.70;90.48;96471.84;4815420;29;20046;-80
2022/02/25 00:56:29;;;;;;;0.82;0.40;;;;;;;2.70;91.50;96458.38;4817886;29;20054;-80
2022/02/25 00:58:56;;;;;;;1.65;0.52;;;;;;;2.71;91.84;96453.81;4821123;29;20053;-80
2022/02/25 01:01:22;;;;;;;2.30;0.43;;;;;;;2.59;91.96;96449.50;4820776;29;20053;-80
2022/02/25 01:03:49;;;;;;;2.33;0.60;;;;;;;2.56;91.78;96446.53;4821014;29;20054;-79
2022/02/25 01:06:15;;;;;;;2.35;0.52;;;;;;;2.54;92.51;96472.88;4820304;29;20070;-80
2022/02/25 01:08:42;;;;;;;2.13;0.35;;;;;;;2.52;92.28;96472.31;4821279;29;20514;-80
2022/02/25 01:11:10;;;;;;;1.73;0.38;;;;;;;2.51;91.68;96482.28;4819248;29;20061;-80
2022/02/25 01:13:36;;;;;;;1.23;0.40;;;;;;;2.47;91.66;96480.38;4821107;29;20133;-80
2022/02/25 01:16:03;;;;;;;0.90;0.32;;;;;;;2.55;88.12;96487.91;4819917;29;20056;-80
2022/02/25 01:18:29;;;;;;;2.17;0.50;;;;;;;2.67;87.93;96475.06;4821044;29;20058;-79
2022/02/25 01:20:56;;;;;;;0.98;0.35;;;;;;;2.49;87.24;96478.22;4820914;29;20149;-80
2022/02/25 01:23:22;;;;;;;1.52;0.40;;;;;;;2.52;86.81;96466.94;4819399;29;20050;-80
2022/02/25 01:25:49;;;;;;;1.00;0.40;;;;;;;2.55;88.87;96466.41;4802424;29;20422;-80
2022/02/25 01:28:17;;;;;;;0.52;0.32;;;;;;;2.51;89.22;96479.59;4801912;29;20059;-80
2022/02/25 01:30:43;;;;;;;1.15;0.43;;;;;;;2.45;88.82;96487.88;4802746;29;20058;-80
2022/02/25 01:33:10;;;;;;;2.22;0.40;;;;;;;2.44;87.26;96480.88;4801313;29;20051;-79
2022/02/25 01:35:38;;;;;;;0.80;0.40;;;;;;;2.46;85.61;96471.50;4802856;29;20259;-80
2022/02/25 01:38:04;;;;;;;0.45;0.40;;;;;;;2.59;84.58;96495.19;4801572;29;20059;-79
2022/02/25 01:40:31;;;;;;;1.52;0.40;;;;;;;2.51;84.12;96505.66;4802478;29;20059;-80
2022/02/25 01:42:58;;;;;;;2.78;0.50;;;;;;;2.57;84.38;96509.97;4801925;29;20108;-79
2022/02/25 01:45:27;;;;;;;1.45;0.28;;;;;;;2.55;83.96;96514.78;4801929;29;20443;-80
2022/02/25 01:47:53;;;;;;;0.28;0.28;;;;;;;2.47;83.87;96510.75;4802731;29;20051;-79
2022/02/25 01:50:20;;;;;;;2.25;0.30;;;;;;;2.39;84.44;96521.19;4801492;29;20530;-80
2022/02/25 01:52:55;;;;;;;1.08;0.43;;;;;;;2.28;86.17;96525.69;4802160;29;20059;-80
2022/02/25 01:55:21;;;;;;;2.67;0.30;;;;;;;2.23;85.68;96547.97;4816486;29;20050;-80
2022/02/25 01:57:48;;;;;;;3.40;0.55;;;;;;;2.38;86.22;96558.00;4820431;29;20050;-79
2022/02/25 02:00:16;;;;;;;2.50;0.50;;;;;;;2.37;85.33;96555.56;4818938;29;20532;-80
2022/02/25 02:02:44;;;;;;;2.90;0.60;;;;;;;2.23;86.25;96549.84;4820000;29;20528;-79
2022/02/25 02:05:11;;;;;;;0.30;0.30;;;;;;;2.26;86.88;96543.97;4819160;29;20058;-80
2022/02/25 02:07:37;;;;;;;2.28;0.30;;;;;;;2.27;87.11;96550.94;4819606;29;20059;-80
2022/02/25 02:10:04;;;;;;;1.23;0.47;;;;;;;2.21;87.08;96568.91;4818577;29;20510;-79
2022/02/25 02:12:31;;;;;;;4.00;0.85;;;;;;;2.20;87.10;96567.31;4819327;29;20526;-80
2022/02/25 02:14:57;;;;;;;2.85;0.80;;;;;;;2.19;87.73;96571.03;4820307;29;20658;-80
2022/02/25 02:17:24;;;;;;;1.65;0.38;;;;;;;2.19;88.10;96571.03;4818892;29;20434;-80
2022/02/25 02:19:51;;;;;;;2.05;0.50;;;;;;;2.11;88.17;96578.78;4820009;29;20054;-80
2022/02/25 02:22:23;;;;;;;1.23;0.65;;;;;;;2.08;88.20;96572.03;4818436;29;20509;-80
2022/02/25 02:24:49;;;;;;;1.88;0.63;;;;;;;2.12;88.55;96575.84;4818277;29;20058;-79
2022/02/25 02:27:16;;;;;;;1.45;0.40;;;;;;;2.17;88.24;96583.13;4818824;29;20058;-80
2022/02/25 02:29:42;;;;;;;1.45;0.50;;;;;;;2.27;88.40;96567.88;4819838;29;20058;-80
2022/02/25 02:32:09;;;;;;;4.43;0.80;;;;;;;2.44;88.20;96572.25;4818787;29;20057;-80
2022/02/25 02:34:36;;;;;;;4.07;0.60;;;;;;;2.41;87.62;96584.38;4818994;29;20526;-79
2022/02/25 02:37:03;;;;;;;0.95;0.60;;;;;;;2.38;87.17;96592.94;4819152;29;20080;-80
2022/02/25 02:39:31;;;;;;;2.10;0.60;;;;;;;2.30;87.19;96583.50;4819061;29;20050;-80
2022/02/25 02:41:57;;;;;;;3.40;0.63;;;;;;;2.30;87.29;96596.94;4819088;29;20050;-79
2022/02/25 02:44:23;;;;;;;2.38;0.63;;;;;;;2.30;86.60;96601.50;4819444;29;20046;-80
2022/02/25 02:46:50;;;;;;;1.95;0.75;;;;;;;2.27;86.11;96604.69;4819759;29;20058;-79
2022/02/25 02:49:16;;;;;;;1.67;0.50;;;;;;;2.29;85.79;96606.03;4818089;29;20061;-81
2022/02/25 02:51:43;;;;;;;0.75;0.47;;;;;;;2.37;84.46;96612.81;4818672;29;20061;-79
2022/02/25 02:54:10;;;;;;;0.93;0.43;;;;;;;2.28;84.00;96617.84;4817993;29;20072;-80
2022/02/25 02:56:37;;;;;;;0.95;0.40;;;;;;;2.36;83.02;96616.59;4819221;29;20054;-79
2022/02/25 02:59:04;;;;;;;0.55;0.40;;;;;;;2.22;83.57;96624.28;4818692;29;20061;-79
2022/02/25 03:01:32;;;;;;;2.85;0.45;;;;;;;2.15;83.10;96612.13;4818458;29;20054;-79
2022/02/25 03:03:59;;;;;;;0.30;0.30;;;;;;;2.16;81.68;96619.94;4819032;29;20062;-79
2022/02/25 03:06:27;;;;;;;1.73;0.40;;;;;;;2.20;81.55;96631.78;4818006;29;20146;-80
2022/02/25 03:08:54;;;;;;;1.55;0.38;;;;;;;2.20;81.42;96631.78;4819292;29;20059;-81
2022/02/25 03:11:21;;;;;;;0.55;0.32;;;;;;;2.20;80.54;96637.16;4817561;29;20046;-80
2022/02/25 03:13:49;;;;;;;0.43;0.30;;;;;;;1.96;80.41;96643.94;4818755;29;20133;-78
2022/02/25 03:16:16;;;;;;;1.40;0.30;;;;;;;2.02;80.10;96635.66;4818232;29;20050;-81
2022/02/25 03:18:43;;;;;;;0.85;0.30;;;;;;;1.90;79.91;96640.41;4818795;29;20581;-80
2022/02/25 03:21:10;;;;;;;0.55;0.32;;;;;;;1.89;80.43;96659.47;4817791;29;20058;-80
2022/02/25 03:23:36;;;;;;;1.00;0.30;;;;;;;1.93;80.22;96658.72;4816879;29;20157;-80
2022/02/25 03:26:03;;;;;;;1.23;0.38;;;;;;;1.95;80.05;96663.81;4818650;29;20510;-81
2022/02/25 03:28:30;;;;;;;1.05;0.40;;;;;;;1.92;79.83;96667.00;4817901;29;20046;-80
2022/02/25 03:30:58;;;;;;;0.65;0.30;;;;;;;1.92;78.83;96661.63;4818506;29;20069;-79
2022/02/25 03:33:25;;;;;;;0.60;0.30;;;;;;;2.04;79.57;96681.09;4817340;29;20103;-80
2022/02/25 03:35:51;;;;;;;0.57;0.30;;;;;;;1.94;78.85;96676.44;4818838;29;20069;-80
2022/02/25 03:38:18;;;;;;;1.75;0.57;;;;;;;1.94;78.40;96686.38;4817666;29;20062;-80
2022/02/25 03:40:44;;;;;;;1.85;0.20;;;;;;;1.96;78.43;96678.84;4818499;29;20062;-79
2022/02/25 03:43:11;;;;;;;1.33;0.40;;;;;;;1.88;79.22;96682.00;4815136;29;20145;-78
2022/02/25 03:45:37;;;;;;;0.73;0.30;;;;;;;1.88;79.33;96682.84;4818281;29;20062;-79
2022/02/25 03:48:05;;;;;;;1.27;0.40;;;;;;;1.88;79.13;96688.19;4817970;29;20058;-79
2022/02/25 03:50:32;;;;;;;0.73;0.38;;;;;;;1.87;79.41;96686.56;4817705;29;20046;-80
2022/02/25 03:52:59;;;;;;;1.42;0.40;;;;;;;1.98;79.02;96690.16;4818168;29;20116;-79
2022/02/25 03:55:26;;;;;;;1.60;0.40;;;;;;;1.95;78.24;96690.66;4817227;29;20057;-79
2022/02/25 03:57:52;;;;;;;1.20;0.35;;;;;;;1.94;78.70;96697.94;4818344;29;20054;-80
2022/02/25 04:00:19;;;;;;;2.63;0.47;;;;;;;1.91;78.24;96702.97;4818076;29;20565;-79
2022/02/25 04:02:45;;;;;;;0.85;0.35;;;;;;;1.99;77.92;96706.03;4817547;29;20068;-79
2022/02/25 04:05:13;;;;;;;1.52;0.38;;;;;;;1.99;78.32;96711.41;4817132;29;20137;-80
2022/02/25 04:07:42;;;;;;;1.95;0.60;;;;;;;2.01;78.41;96714.63;4817922;29;20082;-79
2022/02/25 04:10:09;;;;;;;1.05;0.38;;;;;;;2.05;78.67;96714.94;4817564;29;20050;-80
2022/02/25 04:12:36;;;;;;;1.90;0.25;;;;;;;1.92;79.49;96705.41;4816707;29;20503;-80
2022/02/25 04:15:04;;;;;;;1.05;0.22;;;;;;;1.94;79.32;96710.53;4817370;29;20061;-80
2022/02/25 04:17:31;;;;;;;2.03;0.55;;;;;;;1.88;79.87;96708.84;4817193;29;20062;-79
2022/02/25 04:19:57;;;;;;;2.30;0.30;;;;;;;1.95;79.18;96707.59;4818044;29;20097;-80
2022/02/25 04:22:26;;;;;;;0.88;0.20;;;;;;;2.03;79.33;96722.44;4816608;29;20061;-80
2022/02/25 04:24:52;;;;;;;3.60;0.60;;;;;;;2.11;79.13;96719.28;4817888;29;20078;-80
2022/02/25 04:27:19;;;;;;;1.70;0.40;;;;;;;2.05;79.08;96713.06;4817077;29;20058;-80
2022/02/25 04:29:46;;;;;;;1.60;0.47;;;;;;;2.16;78.75;96722.03;4817714;29;20065;-80
2022/02/25 04:32:13;;;;;;;1.27;0.30;;;;;;;2.17;78.59;96718.25;4816163;29;20137;-80
2022/02/25 04:34:39;;;;;;;2.08;0.30;;;;;;;2.10;78.33;96725.72;4817747;29;20051;-79
2022/02/25 04:37:06;;;;;;;0.50;0.30;;;;;;;2.13;77.91;96722.53;4817325;29;20093;-80
2022/02/25 04:39:34;;;;;;;0.68;0.40;;;;;;;2.11;77.72;96734.59;4817058;29;20078;-80
2022/02/25 04:42:00;;;;;;;0.90;0.40;;;;;;;2.07;77.77;96735.09;4817338;29;20494;-80
2022/02/25 04:44:26;;;;;;;2.92;0.60;;;;;;;2.17;78.16;96730.88;4816978;29;20081;-79
2022/02/25 04:46:53;;;;;;;1.15;0.45;;;;;;;2.13;77.91;96732.47;4818139;29;20070;-80
2022/02/25 04:49:19;;;;;;;3.67;0.55;;;;;;;2.16;77.94;96732.78;4817015;29;20624;-80
2022/02/25 04:51:46;;;;;;;0.95;0.40;;;;;;;2.16;77.80;96738.16;4817572;29;20807;-80
2022/02/25 04:54:12;;;;;;;2.08;0.50;;;;;;;2.12;78.04;96738.91;4816831;29;20720;-80
2022/02/25 04:56:40;;;;;;;0.90;0.50;;;;;;;2.16;77.79;96743.53;4817413;29;20050;-80
2022/02/25 04:59:08;;;;;;;1.75;0.55;;;;;;;2.17;76.70;96734.38;4817082;29;20564;-80
2022/02/25 05:01:34;;;;;;;2.03;0.57;;;;;;;2.27;77.43;96739.84;4817011;29;20054;-80
2022/02/25 05:04:02;;;;;;;1.25;0.50;;;;;;;2.31;77.22;96746.34;4817449;29;20054;-80
2022/02/25 05:06:28;;;;;;;2.63;0.47;;;;;;;2.35;76.88;96747.47;4816570;29;20715;-80
2022/02/25 05:08:55;;;;;;;3.10;0.82;;;;;;;2.35;76.72;96742.09;4817956;29;20058;-80
2022/02/25 05:11:22;;;;;;;2.95;0.68;;;;;;;2.37;77.10;96754.44;4816081;29;20530;-79
2022/02/25 05:13:49;;;;;;;3.05;0.65;;;;;;;2.34;76.43;96751.19;4817327;29;20077;-82
2022/02/25 05:21:54;;;;;;;2.05;0.60;;;;;;;2.32;77.28;96772.16;4817282;29;20505;-80
2022/02/25 05:24:20;;;;;;;0.57;0.45;;;;;;;2.32;77.23;96769.47;4815968;29;20062;-80
2022/02/25 05:26:47;;;;;;;2.13;0.75;;;;;;;2.34;76.74;96777.25;4817515;29;20081;-79
2022/02/25 05:29:15;;;;;;;2.83;0.80;;;;;;;2.37;76.94;96775.94;4817062;29;20430;-79
2022/02/25 05:31:41;;;;;;;1.83;0.93;;;;;;;2.28;77.31;96779.09;4817210;29;20058;-79
2022/02/25 05:34:08;;;;;;;2.40;0.80;;;;;;;2.22;76.93;96790.84;4816923;29;20089;-81
2022/02/25 05:36:35;;;;;;;2.22;0.70;;;;;;;2.15;77.98;96798.31;4817101;29;20054;-80
2022/02/25 05:39:01;;;;;;;1.80;0.50;;;;;;;2.12;78.25;96798.81;4817062;29;20081;-80
2022/02/25 05:41:28;;;;;;;5.55;0.73;;;;;;;2.19;77.42;96804.78;4816239;29;20070;-80
2022/02/25 05:43:54;;;;;;;1.50;0.75;;;;;;;2.22;77.03;96801.59;4819066;29;20050;-80
2022/02/25 05:46:22;;;;;;;0.75;0.47;;;;;;;2.24;77.41;96809.41;4819413;29;20074;-79
2022/02/25 05:48:48;;;;;;;3.67;0.68;;;;;;;2.09;78.04;96818.16;4820706;29;20121;-81
2022/02/25 05:51:15;;;;;;;1.98;0.60;;;;;;;2.16;78.05;96818.75;4819129;29;20065;-79
2022/02/25 05:53:41;;;;;;;3.03;0.77;;;;;;;2.20;78.15;96824.44;4820328;29;20123;-80
2022/02/25 05:56:08;;;;;;;3.33;0.93;;;;;;;2.15;78.28;96819.00;4819650;29;20055;-80
2022/02/25 05:58:34;;;;;;;1.27;0.55;;;;;;;2.30;77.46;96825.34;4820330;29;20138;-80
2022/02/25 06:01:01;;;;;;;0.90;0.50;;;;;;;2.33;76.95;96824.81;4819996;29;20050;-80
2022/02/25 06:03:29;;;;;;;1.65;0.68;;;;;;;2.42;76.34;96832.44;4818910;29;20049;-79
2022/02/25 06:05:55;;;;;;;2.38;0.68;;;;;;;2.26;76.97;96834.97;4819878;29;20057;-80
2022/02/25 06:08:22;;;;;;;1.90;0.77;;;;;;;2.19;77.10;96839.72;4818859;29;20066;-79
2022/02/25 06:10:48;;;;;;;2.10;0.80;;;;;;;2.25;77.38;96849.47;4820201;29;20053;-79
2022/02/25 06:13:15;;;;;;;1.58;0.57;;;;;;;2.26;76.90;96853.78;4818103;29;20421;-80
2022/02/25 06:15:43;;;;;;;2.80;0.70;;;;;;;2.21;77.07;96853.72;4820190;29;20062;-80
2022/02/25 06:18:09;;;;;;;3.10;0.70;;;;;;;2.22;76.87;96863.41;4818778;29;20085;-79
2022/02/25 06:20:37;;;;;;;4.00;0.80;;;;;;;2.18;76.76;96870.34;4819946;29;20050;-79
2022/02/25 06:23:05;;;;;;;1.95;0.70;;;;;;;2.22;76.17;96866.09;4825915;29;20066;-82
2022/02/25 06:25:33;;;;;;;2.40;0.75;;;;;;;2.13;76.97;96877.53;4830940;29;20050;-83
2022/02/25 06:28:00;;;;;;;4.72;0.70;;;;;;;2.05;76.96;96876.13;4824645;29;20051;-80
2022/02/25 06:30:26;;;;;;;2.53;0.60;;;;;;;1.94;77.88;96874.38;4821192;29;20043;-80
2022/02/25 06:32:53;;;;;;;2.45;0.85;;;;;;;1.95;77.51;96873.31;4822188;29;20058;-79
2022/02/25 06:35:23;;;;;;;2.05;0.90;;;;;;;1.88;78.04;96886.09;4822711;29;20135;-82
2022/02/25 06:37:51;;;;;;;2.20;0.70;;;;;;;1.85;78.01;96889.28;4820818;29;20073;-80
2022/02/25 06:40:17;;;;;;;4.38;0.80;;;;;;;1.89;78.02;96896.59;4818962;29;20510;-80
2022/02/25 06:42:44;;;;;;;1.30;0.63;;;;;;;1.93;77.72;96902.28;4820106;29;20058;-80
2022/02/25 06:45:10;;;;;;;2.00;0.60;;;;;;;2.00;77.01;96905.59;4819612;29;20525;-80
2022/02/25 06:47:37;;;;;;;3.22;0.80;;;;;;;1.88;76.80;96911.09;4820217;29;20067;-79
2022/02/25 06:50:08;;;;;;;1.67;0.70;;;;;;;1.75;76.87;96914.13;4820553;29;20046;-79
2022/02/25 06:52:35;;;;;;;4.57;1.17;;;;;;;1.72;76.91;96915.44;4820038;29;20073;-80
2022/02/25 06:55:04;;;;;;;1.95;0.70;;;;;;;1.77;76.49;96912.81;4819937;29;20046;-80
2022/02/25 06:57:30;;;;;;;1.42;0.60;;;;;;;1.74;75.55;96918.69;4820354;29;20054;-81
2022/02/25 06:59:57;;;;;;;1.95;0.80;;;;;;;1.73;75.59;96916.25;4814386;29;20078;-81
2022/02/25 07:02:24;;;;;;;2.92;0.70;;;;;;;1.77;75.46;96910.13;4800559;29;20062;-80
2022/02/25 07:04:50;;;;;;;4.05;0.98;;;;;;;1.75;75.82;96924.88;4803381;29;20055;-80
2022/02/25 07:07:17;;;;;;;4.70;0.68;;;;;;;1.69;75.68;96924.00;4804776;29;20393;-81
2022/02/25 07:09:44;;;;;;;3.05;0.63;;;;;;;1.64;76.03;96923.91;4805315;29;20053;-80
2022/02/25 07:12:12;;;;;;;4.22;0.52;;;;;;;1.71;75.42;96929.91;4802524;29;20515;-80
2022/02/25 07:14:39;;;;;;;3.08;0.70;;;;;;;1.85;74.98;96941.13;4804433;29;20059;-81
2022/02/25 07:17:06;;;;;;;2.88;1.08;;;;;;;1.97;74.89;96932.94;4805724;29;20115;-81
2022/02/25 07:22:07;;;;;;;2.58;0.95;;;;;;;1.90;74.17;96948.44;5113397;23;20054;-79
2022/02/25 07:24:36;;;;;;;1.85;0.55;;;;;;;1.86;72.22;96950.00;4859080;29;20053;-82
2022/02/25 07:27:03;;;;;;;4.60;0.80;;;;;;;1.75;72.39;96947.16;4859300;29;20062;-86
2022/02/25 07:29:31;;;;;;;3.33;0.82;;;;;;;1.79;71.99;96959.03;4850341;29;20612;-81
2022/02/25 07:31:57;;;;;;;3.13;0.70;;;;;;;1.87;71.47;96956.97;4857896;29;20100;-80
2022/02/25 07:34:27;;;;;;;2.40;0.90;;;;;;;1.99;70.96;96955.00;4858052;29;20091;-82
2022/02/25 07:36:54;;;;;;;4.65;0.60;;;;;;;1.96;71.35;96958.19;4857980;29;20528;-80
2022/02/25 07:39:20;;;;;;;2.70;0.60;;;;;;;1.89;70.16;96968.31;4856175;29;20432;-83
2022/02/25 07:41:47;;;;;;;3.60;0.70;;;;;;;1.96;69.41;96955.50;4846869;29;20064;-80
2022/02/25 07:44:14;;;;;;;6.60;0.70;;;;;;;2.05;70.11;96951.34;4843146;29;20410;-80
2022/02/25 07:46:45;;;;;;;4.85;0.90;;;;;;;2.12;69.15;96954.63;4842890;29;20060;-84
2022/02/25 07:49:12;;;;;;;2.83;0.65;;;;;;;2.16;68.51;96961.16;4840209;29;20053;-80
2022/02/25 07:51:38;;;;;;;2.50;0.63;;;;;;;2.13;68.48;96958.94;4839383;29;20058;-79
2022/02/25 07:54:05;;;;;;;1.83;0.80;;;;;;;2.27;67.63;96960.19;4831622;29;20062;-86
2022/02/25 07:56:32;;;;;;;2.75;0.95;;;;;;;2.26;67.49;96966.66;4831231;29;20049;-82
2022/02/25 07:58:58;;;;;;;2.70;0.73;;;;;;;2.33;67.44;96963.75;4822112;29;20061;-79
2022/02/25 08:01:26;;;;;;;2.10;0.60;;;;;;;2.41;66.63;96970.59;4843013;29;20054;-79
2022/02/25 08:03:54;;;;;;;5.10;0.70;;;;;;;2.47;65.72;96969.59;4839369;29;20054;-80
2022/02/25 08:06:21;;;;;;;2.70;0.70;;;;;;;2.49;66.66;96972.81;4831588;29;20061;-81
2022/02/25 08:08:47;;;;;;;2.22;0.68;;;;;;;2.66;66.40;96980.81;4839884;29;20085;-80
2022/02/25 08:11:14;;;;;;;1.33;0.52;;;;;;;2.72;67.33;96982.50;4835999;29;20060;-81
2022/02/25 08:13:40;;;;;;;2.28;0.60;;;;;;;2.68;66.21;96992.94;4845623;29;20050;-80
2022/02/25 08:16:08;;;;;;;3.40;1.65;;;;;;;2.80;67.60;96990.91;4846774;29;20061;-83
2022/02/25 08:18:35;;;;;;;2.83;0.90;;;;;;;2.96;67.27;96986.50;4810936;29;20446;-80
2022/02/25 08:21:03;;;;;;;2.90;0.70;;;;;;;3.17;66.32;96981.31;4820825;29;20056;-81
2022/02/25 08:23:30;;;;;;;3.90;0.90;;;;;;;3.19;64.63;96984.59;4846816;29;20136;-80
2022/02/25 08:25:57;;;;;;;2.53;0.90;;;;;;;3.31;65.56;96985.25;4841487;29;20068;-81
2022/02/25 08:28:25;;;;;;;2.80;0.70;;;;;;;3.35;65.47;96992.53;4839210;29;20041;-82
2022/02/25 08:30:52;;;;;;;3.20;0.98;;;;;;;3.42;62.67;96991.53;4839437;29;20057;-82
2022/02/25 08:33:18;;;;;;;3.92;0.82;;;;;;;3.53;63.06;96995.91;4840852;29;20111;-80
2022/02/25 08:35:45;;;;;;;5.18;0.70;;;;;;;3.65;62.38;96992.00;4839906;29;20062;-78
2022/02/25 08:38:17;;;;;;;2.28;0.68;;;;;;;3.89;63.61;96991.59;4839427;29;20049;-80
2022/02/25 08:40:44;;;;;;;6.07;1.00;;;;;;;4.44;60.14;96987.59;4840227;29;20759;-78
2022/02/25 08:43:12;;;;;;;3.58;0.80;;;;;;;4.73;61.45;96985.28;4828389;29;20054;-81
2022/02/25 08:45:41;;;;;;;4.35;0.90;;;;;;;4.37;59.51;96989.72;4820374;29;20675;-80
2022/02/25 08:48:08;;;;;;;4.38;1.10;;;;;;;4.64;60.60;96992.25;4826347;29;20060;-81
2022/02/25 08:50:35;;;;;;;5.45;1.02;;;;;;;5.07;57.73;96995.63;4835171;29;20467;-81
2022/02/25 08:53:02;;;;;;;2.35;1.08;;;;;;;5.63;54.83;96995.66;4826788;29;20065;-81
2022/02/25 08:55:30;;;;;;;3.65;0.98;;;;;;;5.95;54.44;96993.53;4841397;24;20109;-82
2022/02/25 08:57:57;;;;;;;11.00;1.13;;;;;;;6.26;52.13;96990.75;4843280;29;20061;-80
2022/02/25 09:00:25;;;;;;;4.35;1.00;;;;;;;6.19;50.80;96991.03;4839801;29;20081;-80
2022/02/25 09:02:53;;;;;;;5.93;0.82;;;;;;;5.77;49.83;96994.06;4836869;29;20057;-79
2022/02/25 09:05:22;;;;;;;4.55;0.80;;;;;;;6.26;50.33;96982.63;4836487;29;20058;-82
2022/02/25 09:07:50;;;;;;;4.22;0.70;;;;;;;6.13;49.94;96983.22;4839542;29;20085;-80
2022/02/25 09:10:17;;;;;;;4.38;0.68;;;;;;;6.33;48.03;96988.59;4836868;29;20084;-80
2022/02/25 09:12:46;;;;;;;5.70;1.48;;;;;;;6.49;49.03;96990.16;4840007;29;20061;-81
2022/02/25 09:15:15;;;;;;;4.07;0.77;;;;;;;6.62;47.63;96985.22;4838661;29;20061;-79
2022/02/25 09:17:43;;;;;;;5.03;0.65;;;;;;;6.84;45.50;96991.09;4839818;29;20057;-81
2022/02/25 09:20:12;;;;;;;3.78;0.90;;;;;;;7.11;46.99;96995.28;4841768;29;20057;-82
2022/02/25 09:22:40;;;;;;;4.18;0.75;;;;;;;7.55;46.28;96990.63;4823248;29;20050;-81
2022/02/25 09:25:07;;;;;;;7.15;1.02;;;;;;;7.26;44.47;97006.03;4822097;29;20054;-80
2022/02/25 09:27:34;;;;;;;4.22;0.85;;;;;;;7.24;43.76;97006.28;4822903;29;20518;-81
2022/02/25 09:30:05;;;;;;;3.00;0.68;;;;;;;6.88;45.03;97000.25;4829890;29;20087;-81
2022/02/25 09:32:32;;;;;;;2.80;0.70;;;;;;;6.71;43.47;97002.50;4828925;29;20060;-81
2022/02/25 09:35:04;;;;;;;2.78;0.68;;;;;;;6.60;43.72;97000.94;4826607;29;20132;-81
2022/02/25 09:37:34;;;;;;;2.88;0.80;;;;;;;6.13;44.81;96996.75;4823822;29;20069;-80
2022/02/25 09:40:01;;;;;;;5.00;0.68;;;;;;;5.61;45.55;96995.13;4824822;29;20070;-79
2022/02/25 09:42:28;;;;;;;6.22;0.73;;;;;;;5.59;45.38;97008.94;4820718;29;20046;-79
2022/02/25 09:44:56;;;;;;;5.47;0.80;;;;;;;5.22;46.38;97012.66;4824450;29;20083;-80
2022/02/25 09:47:27;;;;;;;5.35;0.80;;;;;;;5.33;48.02;97000.00;4821764;29;20057;-80
2022/02/25 09:49:53;;;;;;;4.93;0.90;;;;;;;5.07;47.19;97001.03;4821212;29;20084;-79
2022/02/25 09:52:21;;;;;;;4.32;0.80;;;;;;;5.10;48.39;97003.19;4832633;29;20057;-81
2022/02/25 09:54:48;;;;;;;6.28;1.00;;;;;;;5.46;49.56;96988.66;4836090;29;20061;-80
2022/02/25 09:57:14;;;;;;;3.22;0.73;;;;;;;5.25;49.01;96992.41;4824302;29;20050;-81
2022/02/25 09:59:41;;;;;;;7.15;1.30;;;;;;;5.33;50.32;96989.19;4821377;29;20150;-80
2022/02/25 10:02:09;;;;;;;5.72;0.90;;;;;;;5.29;50.37;96992.69;4823367;29;20105;-80
2022/02/25 10:04:37;;;;;;;4.75;0.88;;;;;;;5.05;47.28;97008.56;4821424;29;20138;-80
2022/02/25 10:10:09;;;;;;;3.33;0.80;;;;;;;4.97;52.23;97001.81;4818558;29;20064;-81
2022/02/25 10:12:40;;;;;;;3.42;0.68;;;;;;;4.94;51.50;97008.53;4812779;29;20062;-81
2022/02/25 10:15:08;;;;;;;4.90;0.70;;;;;;;4.82;48.59;97005.28;4801648;29;20059;-81
2022/02/25 10:17:37;;;;;;;13.05;1.45;;;;;;;4.83;48.30;97001.50;4788190;29;20054;-82
2022/02/25 10:20:08;;;;;;;7.13;1.25;;;;;;;4.75;50.32;97007.41;4807689;29;20055;-81
2022/02/25 10:22:38;;;;;;;2.85;0.70;;;;;;;5.03;52.25;97016.13;4805043;29;20590;-80
2022/02/25 10:25:07;;;;;;;3.08;0.57;;;;;;;5.00;51.74;97016.66;4802918;29;20482;-79
2022/02/25 10:27:36;;;;;;;2.63;1.00;;;;;;;4.79;49.86;97010.38;4804488;29;20411;-80
2022/02/25 10:30:08;;;;;;;9.55;1.23;;;;;;;4.95;53.12;96993.16;4800175;29;20082;-80
2022/02/25 10:32:38;;;;;;;6.53;0.90;;;;;;;4.87;50.10;97007.19;4805178;29;20055;-79
2022/02/25 10:38:02;;;;;;;5.40;0.95;;;;;;;5.05;50.02;96995.06;5073421;27;20408;-80
2022/02/25 10:40:31;;;;;;;3.25;0.88;;;;;;;5.26;50.34;96994.03;5082102;28;20592;-81
2022/02/25 10:42:58;;;;;;;5.20;0.80;;;;;;;5.54;54.40;96989.22;5082365;28;20055;-81
2022/02/25 10:45:33;;;;;;;3.72;1.13;;;;;;;5.91;50.49;96995.16;5078211;28;20766;-80
2022/02/25 10:48:02;;;;;;;10.20;1.15;;;;;;;6.14;52.60;96995.66;5083384;28;20045;-81
2022/02/25 10:50:31;;;;;;;3.83;0.80;;;;;;;6.09;51.90;96995.66;5093569;28;20067;-83
2022/02/25 10:53:02;;;;;;;5.00;0.93;;;;;;;5.89;52.77;96991.88;5093682;28;20055;-83
2022/02/25 10:55:29;;;;;;;8.75;1.02;;;;;;;5.62;49.05;96992.16;5075948;28;20036;-81
2022/02/25 10:58:01;;;;;;;4.15;1.00;;;;;;;5.49;51.51;96990.81;5081432;28;20060;-82
2022/02/25 11:00:28;;;;;;;2.55;0.47;;;;;;;5.30;49.71;96989.72;5075919;28;20158;-80
2022/02/25 11:02:59;;;;;;;4.72;1.10;;;;;;;5.17;54.16;96984.84;5079123;28;20048;-81
2022/02/25 11:05:27;;;;;;;4.32;0.85;;;;;;;5.10;50.44;96995.09;5077719;28;20051;-81
2022/02/25 11:07:56;;;;;;;2.28;0.70;;;;;;;4.95;47.56;96996.66;5069444;28;20072;-82
2022/02/25 11:10:31;;;;;;;6.18;1.80;;;;;;;5.21;48.51;96985.91;5085372;28;20453;-82
2022/02/25 11:13:04;;;;;;;2.35;0.65;;;;;;;5.19;48.92;96988.09;5094192;28;20060;-81
2022/02/25 11:15:32;;;;;;;5.40;0.87;;;;;;;5.58;48.48;96990.25;5092793;28;20048;-81
2022/02/25 11:18:00;;;;;;;4.63;0.77;;;;;;;6.17;49.06;96974.28;5086820;28;20052;-82
2022/02/25 11:20:28;;;;;;;3.40;0.77;;;;;;;6.52;47.32;96973.38;5089722;28;20078;-79
2022/02/25 11:22:59;;;;;;;2.17;0.38;;;;;;;6.42;44.30;96968.00;5086858;28;20051;-80
2022/02/25 11:25:30;;;;;;;4.07;1.33;;;;;;;7.06;48.67;96966.34;5101303;28;20048;-83
2022/02/25 11:27:58;;;;;;;5.78;0.60;;;;;;;7.44;41.78;96972.84;5086648;28;20058;-79
2022/02/25 11:30:31;;;;;;;2.25;0.65;;;;;;;7.20;43.13;96961.09;5082101;28;20044;-81
2022/02/25 11:33:00;;;;;;;3.97;0.82;;;;;;;7.24;43.86;96946.69;5087068;28;20048;-81
2022/02/25 11:35:29;;;;;;;3.45;0.65;;;;;;;6.84;42.88;96968.59;5091864;28;20047;-82
2022/02/25 11:38:03;;;;;;;4.85;1.30;;;;;;;6.95;45.86;96957.47;5045453;28;20053;-81
2022/02/25 11:40:53;;;;;;;2.90;0.70;;;;;;;7.14;42.34;96962.22;5049508;28;20044;-81
2022/02/25 11:43:40;;;;;;;3.00;0.60;;;;;;;7.27;42.30;96950.75;5049352;28;20079;-81
2022/02/25 11:46:08;;;;;;;4.22;1.00;;;;;;;6.82;43.26;96958.06;5046152;28;20053;-82
2022/02/25 11:48:41;;;;;;;4.07;1.02;;;;;;;6.96;43.63;96945.53;5037468;28;20668;-81
2022/02/25 11:51:09;;;;;;;3.60;0.63;;;;;;;6.36;42.93;96947.44;5033835;28;20060;-81
2022/02/25 11:53:36;;;;;;;5.18;0.80;;;;;;;6.20;44.25;96954.78;5031972;28;20121;-81
2022/02/25 11:56:19;;;;;;;3.63;0.80;;;;;;;6.11;45.59;96945.66;5033530;28;20079;-82